Time;durP1;ratioP1;P1;durP2;ratioP2;P2;SDS_P1;SDS_P2;PMS_P1;PMS_P2;Temp;Humidity;BMP_temperature;BMP_pressure;BME280_temperature;BME280_humidity;BME280_pressure;Samples;Min_cycle;Max_cycle;Signal;HPM_P1;HPM_P2
2023/06/25 00:02:10;;;;;;;23.77;11.70;;;;;;;19.69;100.00;101839.19;5106367;28;20040;-69
2023/06/25 00:04:35;;;;;;;22.60;12.20;;;;;;;19.67;100.00;101838.31;5103259;28;20043;-69
2023/06/25 00:07:01;;;;;;;23.40;11.90;;;;;;;19.69;100.00;101839.19;5105127;28;20040;-70
2023/06/25 00:09:26;;;;;;;22.77;11.82;;;;;;;19.72;100.00;101828.41;5104426;28;20031;-69
2023/06/25 00:11:52;;;;;;;24.23;13.13;;;;;;;19.73;100.00;101827.50;5103878;28;20107;-69
2023/06/25 00:14:17;;;;;;;24.08;13.27;;;;;;;19.59;100.00;101824.19;5087476;28;20024;-70
2023/06/25 00:16:43;;;;;;;23.27;12.52;;;;;;;19.57;100.00;101821.53;5102799;28;20034;-70
2023/06/25 00:19:08;;;;;;;24.30;12.98;;;;;;;19.60;100.00;101833.97;5106126;28;20120;-70
2023/06/25 00:21:34;;;;;;;23.83;13.07;;;;;;;19.60;100.00;101820.56;5102990;28;20503;-70
2023/06/25 00:23:59;;;;;;;23.45;12.50;;;;;;;19.48;100.00;101827.94;5104670;28;20034;-69
2023/06/25 00:26:24;;;;;;;23.02;12.00;;;;;;;19.42;100.00;101822.66;5104354;28;20386;-70
2023/06/25 00:28:50;;;;;;;23.23;12.18;;;;;;;19.22;100.00;101825.69;5103099;28;20093;-70
2023/06/25 00:31:15;;;;;;;22.70;12.20;;;;;;;19.13;100.00;101820.47;5105779;28;20020;-70
2023/06/25 00:33:43;;;;;;;22.83;11.80;;;;;;;19.04;100.00;101820.63;5102258;28;20032;-70
2023/06/25 00:36:09;;;;;;;23.38;12.15;;;;;;;19.09;100.00;101822.31;5097617;28;20049;-69
2023/06/25 00:38:39;;;;;;;22.60;12.48;;;;;;;19.09;100.00;101813.38;5102927;28;20040;-70
2023/06/25 00:41:09;;;;;;;23.52;12.95;;;;;;;19.10;100.00;101817.84;5104822;28;20509;-70
2023/06/25 00:43:34;;;;;;;23.52;13.40;;;;;;;18.97;100.00;101815.38;5102887;28;20051;-70
2023/06/25 00:46:00;;;;;;;25.33;13.85;;;;;;;18.90;100.00;101815.47;5104378;28;20024;-70
2023/06/25 00:48:26;;;;;;;23.70;13.30;;;;;;;18.88;100.00;101814.63;5104228;28;20028;-70
2023/06/25 00:50:52;;;;;;;24.45;13.77;;;;;;;18.86;100.00;101811.97;5102911;28;20024;-70
2023/06/25 00:53:19;;;;;;;23.73;13.38;;;;;;;18.91;100.00;101814.56;5105092;28;20100;-70
2023/06/25 00:55:50;;;;;;;24.00;13.88;;;;;;;18.82;100.00;101811.06;5101167;28;20468;-70
2023/06/25 00:58:20;;;;;;;23.77;13.77;;;;;;;18.68;100.00;101807.69;5105054;28;20463;-70
2023/06/25 01:00:46;;;;;;;23.85;13.15;;;;;;;18.66;100.00;101796.13;5102060;28;20107;-70
2023/06/25 01:03:28;;;;;;;24.48;14.15;;;;;;;18.70;100.00;101799.66;5105377;28;20031;-70
2023/06/25 01:06:14;;;;;;;24.85;15.35;;;;;;;18.62;100.00;101799.75;5100609;28;20111;-63
2023/06/25 01:08:49;;;;;;;24.73;15.07;;;;;;;18.61;100.00;101800.66;5097900;28;20032;-65
2023/06/25 01:11:14;;;;;;;26.02;15.80;;;;;;;18.55;100.00;101798.97;5098033;28;20032;-65
2023/06/25 01:13:39;;;;;;;25.23;15.10;;;;;;;18.48;100.00;101802.66;5097637;28;20031;-62
2023/06/25 01:16:05;;;;;;;25.88;14.82;;;;;;;18.52;100.00;101792.78;5104776;28;20363;-62
2023/06/25 01:18:31;;;;;;;24.33;14.38;;;;;;;18.40;100.00;101796.50;5102867;28;20051;-61
2023/06/25 01:20:58;;;;;;;24.92;14.82;;;;;;;18.26;100.00;101799.34;5102974;28;20399;-63
2023/06/25 01:23:23;;;;;;;25.00;14.48;;;;;;;18.25;100.00;101789.56;5103679;28;20032;-62
2023/06/25 01:25:49;;;;;;;24.20;14.75;;;;;;;18.35;100.00;101792.97;5102077;28;20031;-63
2023/06/25 01:28:20;;;;;;;24.75;14.73;;;;;;;18.45;100.00;101792.00;5104742;28;20115;-62
2023/06/25 01:30:47;;;;;;;24.45;14.93;;;;;;;18.46;100.00;101791.97;5101812;28;20055;-65
2023/06/25 01:33:15;;;;;;;24.45;14.52;;;;;;;18.43;100.00;101783.06;5086919;28;20487;-65
2023/06/25 01:35:40;;;;;;;24.23;14.02;;;;;;;18.36;100.00;101776.91;5097198;28;20429;-65
2023/06/25 01:38:06;;;;;;;23.30;14.32;;;;;;;18.24;100.00;101782.44;5104315;28;20024;-65
2023/06/25 01:40:31;;;;;;;23.85;14.25;;;;;;;18.16;100.00;101777.19;5102480;28;20031;-63
2023/06/25 01:42:56;;;;;;;23.92;14.27;;;;;;;18.10;100.00;101772.78;5102628;28;20037;-62
2023/06/25 01:45:22;;;;;;;24.25;14.57;;;;;;;18.07;100.00;101772.84;5104082;28;20114;-65
2023/06/25 01:47:48;;;;;;;24.90;14.68;;;;;;;17.99;100.00;101764.00;5101446;28;20110;-64
2023/06/25 01:50:14;;;;;;;25.95;17.23;;;;;;;17.90;100.00;101762.31;5104871;28;20027;-65
2023/06/25 01:52:39;;;;;;;25.83;16.92;;;;;;;17.93;100.00;101756.94;5101110;28;20024;-63
2023/06/25 01:55:05;;;;;;;25.75;16.00;;;;;;;17.88;100.00;101760.53;5103745;28;20035;-62
2023/06/25 01:57:30;;;;;;;25.63;16.00;;;;;;;17.79;100.00;101750.81;5102540;28;20173;-61
2023/06/25 01:59:56;;;;;;;25.58;15.13;;;;;;;17.82;100.00;101749.91;5102445;28;20047;-64
2023/06/25 02:02:21;;;;;;;24.38;14.60;;;;;;;17.89;100.00;101751.63;5085515;28;20030;-63
2023/06/25 02:04:46;;;;;;;24.67;14.40;;;;;;;17.85;100.00;101757.91;5101385;28;20093;-64
2023/06/25 02:07:12;;;;;;;24.20;14.32;;;;;;;17.81;100.00;101748.13;5107431;28;20073;-64
2023/06/25 02:09:37;;;;;;;25.10;15.85;;;;;;;17.76;100.00;101743.72;5105656;28;20038;-63
2023/06/25 02:12:03;;;;;;;24.60;15.13;;;;;;;17.72;100.00;101739.34;5107899;28;20064;-63
2023/06/25 02:14:28;;;;;;;25.13;15.88;;;;;;;17.61;100.00;101735.88;5106585;28;20032;-64
2023/06/25 02:16:55;;;;;;;26.02;16.40;;;;;;;17.57;100.00;101735.00;5106015;28;20016;-63
2023/06/25 02:19:20;;;;;;;25.33;15.63;;;;;;;17.57;100.00;101729.66;5107882;28;20489;-62
2023/06/25 02:21:45;;;;;;;26.42;16.17;;;;;;;17.59;100.00;101722.53;5104690;28;20048;-64
2023/06/25 02:24:11;;;;;;;25.92;16.65;;;;;;;17.55;100.00;101727.94;5108207;28;20114;-63
2023/06/25 02:26:36;;;;;;;25.80;16.23;;;;;;;17.57;100.00;101720.78;5105446;28;20059;-61
2023/06/25 02:29:01;;;;;;;25.63;17.48;;;;;;;17.58;100.00;101722.56;5106844;28;20105;-62
2023/06/25 02:31:27;;;;;;;27.00;17.25;;;;;;;17.46;100.00;101715.56;5106588;28;20024;-65
2023/06/25 02:33:53;;;;;;;24.92;15.60;;;;;;;17.47;100.00;101721.78;5105604;28;20063;-62
2023/06/25 02:36:18;;;;;;;24.90;16.42;;;;;;;17.51;100.00;101718.19;5107689;28;20378;-65
2023/06/25 02:38:43;;;;;;;27.70;17.60;;;;;;;17.56;100.00;101710.97;5104626;28;20467;-61
2023/06/25 02:41:08;;;;;;;27.10;18.45;;;;;;;17.49;100.00;101703.94;5107596;28;20356;-61
2023/06/25 02:43:34;;;;;;;26.45;17.05;;;;;;;17.41;100.00;101710.22;5105245;28;20032;-61
2023/06/25 02:45:59;;;;;;;25.50;16.20;;;;;;;17.30;100.00;101713.91;5106483;28;20406;-61
2023/06/25 02:48:24;;;;;;;25.70;15.73;;;;;;;17.27;100.00;101706.84;5106712;28;20051;-64
2023/06/25 02:50:50;;;;;;;25.05;16.00;;;;;;;17.33;100.00;101703.19;5104859;28;20101;-65
2023/06/25 02:53:15;;;;;;;25.17;15.75;;;;;;;17.27;100.00;101709.53;5107909;28;20032;-62
2023/06/25 02:55:41;;;;;;;24.65;15.68;;;;;;;17.24;100.00;101704.19;5100015;28;20127;-65
2023/06/25 02:58:06;;;;;;;25.52;15.80;;;;;;;17.23;100.00;101702.44;5106958;28;20049;-64
2023/06/25 03:00:32;;;;;;;27.48;17.85;;;;;;;17.17;100.00;101705.13;5105476;28;20027;-64
2023/06/25 03:02:57;;;;;;;27.75;18.00;;;;;;;17.03;100.00;101700.81;5105484;28;20432;-63
2023/06/25 03:05:22;;;;;;;26.33;18.15;;;;;;;17.08;100.00;101704.34;5106714;28;20035;-65
2023/06/25 03:07:53;;;;;;;27.92;19.55;;;;;;;17.08;100.00;101707.00;5104499;28;20398;-62
2023/06/25 03:10:19;;;;;;;28.55;19.58;;;;;;;17.08;100.00;101708.78;5106962;28;20495;-64
2023/06/25 03:12:44;;;;;;;27.27;18.83;;;;;;;17.05;100.00;101703.47;5104077;28;20036;-69
2023/06/25 03:15:09;;;;;;;28.00;18.20;;;;;;;17.00;100.00;101698.16;5107383;28;20078;-68
2023/06/25 03:17:35;;;;;;;27.70;19.08;;;;;;;16.92;100.00;101697.38;5103830;28;20027;-68
2023/06/25 03:20:00;;;;;;;28.35;19.52;;;;;;;16.90;100.00;101704.50;5105909;28;20156;-69
2023/06/25 03:22:26;;;;;;;30.50;21.70;;;;;;;16.85;100.00;101703.63;5105511;28;20138;-69
2023/06/25 03:24:51;;;;;;;29.08;20.83;;;;;;;16.88;100.00;101701.84;5104232;28;20121;-68
2023/06/25 03:27:17;;;;;;;28.92;20.35;;;;;;;16.85;100.00;101695.63;5107154;28;20467;-68
2023/06/25 03:29:42;;;;;;;30.20;22.17;;;;;;;16.81;100.00;101702.75;5103508;28;20032;-68
2023/06/25 03:32:07;;;;;;;32.05;22.98;;;;;;;16.75;100.00;101702.81;5106388;28;20097;-69
2023/06/25 03:34:33;;;;;;;29.83;22.40;;;;;;;16.70;100.00;101702.84;5104973;28;20381;-68
2023/06/25 03:36:58;;;;;;;28.75;21.60;;;;;;;16.69;100.00;101694.84;5105085;28;20032;-64
2023/06/25 03:39:23;;;;;;;28.75;20.70;;;;;;;16.76;100.00;101685.00;5105799;28;20525;-69
2023/06/25 03:41:49;;;;;;;29.90;20.80;;;;;;;16.78;100.00;101691.22;5085499;28;20028;-69
2023/06/25 03:44:14;;;;;;;28.50;20.10;;;;;;;16.85;100.00;101690.28;5106710;28;20119;-68
2023/06/25 03:46:39;;;;;;;28.33;21.17;;;;;;;16.85;100.00;101683.13;5103837;28;20028;-66
2023/06/25 03:49:05;;;;;;;28.73;20.58;;;;;;;16.92;100.00;101693.78;5105981;28;20054;-68
2023/06/25 03:51:30;;;;;;;29.13;21.48;;;;;;;16.84;100.00;101688.50;5104540;28;20115;-68
2023/06/25 03:53:55;;;;;;;28.60;21.42;;;;;;;16.85;100.00;101690.28;5104542;28;20070;-69
2023/06/25 03:56:21;;;;;;;29.08;21.45;;;;;;;16.80;100.00;101684.94;5106117;28;20027;-67
2023/06/25 03:58:46;;;;;;;28.42;21.13;;;;;;;16.81;100.00;101684.06;5103235;28;20032;-69
2023/06/25 04:01:11;;;;;;;28.70;21.52;;;;;;;16.84;100.00;101685.81;5098933;28;20107;-68
2023/06/25 04:03:37;;;;;;;28.65;20.33;;;;;;;16.89;100.00;101686.69;5105520;28;20042;-69
2023/06/25 04:06:03;;;;;;;28.83;20.25;;;;;;;16.92;100.00;101689.38;5104017;28;20054;-68
2023/06/25 04:08:28;;;;;;;29.35;20.80;;;;;;;16.96;100.00;101683.06;5104632;28;20108;-68
2023/06/25 04:10:54;;;;;;;27.70;19.90;;;;;;;16.95;100.00;101685.75;5105435;28;20106;-69
2023/06/25 04:13:19;;;;;;;27.63;19.33;;;;;;;16.94;100.00;101686.69;5084928;28;20127;-69
2023/06/25 04:15:44;;;;;;;28.95;20.70;;;;;;;16.95;100.00;101684.00;5106345;28;20111;-66
2023/06/25 04:18:10;;;;;;;27.65;19.60;;;;;;;16.96;100.00;101687.53;5102760;28;20028;-68
2023/06/25 04:20:35;;;;;;;27.90;19.92;;;;;;;16.98;100.00;101693.72;5105202;28;20024;-70
2023/06/25 04:23:00;;;;;;;27.17;20.40;;;;;;;17.05;100.00;101687.44;5103966;28;20070;-70
2023/06/25 04:25:26;;;;;;;28.25;21.10;;;;;;;17.07;100.00;101689.19;5103599;28;20024;-70
2023/06/25 04:27:55;;;;;;;28.98;23.20;;;;;;;17.16;100.00;101690.91;5105405;28;20066;-69
2023/06/25 04:30:20;;;;;;;29.20;23.92;;;;;;;17.16;100.00;101684.69;5102233;28;20110;-70
2023/06/25 04:32:49;;;;;;;30.48;23.75;;;;;;;17.25;100.00;101677.44;5106060;28;20115;-69
2023/06/25 04:35:15;;;;;;;29.50;25.05;;;;;;;17.27;100.00;101680.13;5098634;28;20409;-70
2023/06/25 04:37:40;;;;;;;29.50;24.20;;;;;;;17.33;100.00;101674.72;5105682;28;20024;-70
2023/06/25 04:40:07;;;;;;;32.97;29.27;;;;;;;17.41;100.00;101680.84;5102866;28;20028;-70
2023/06/25 04:42:33;;;;;;;34.45;30.77;;;;;;;17.53;100.00;101682.50;5104470;28;20125;-70
2023/06/25 04:44:58;;;;;;;37.85;33.95;;;;;;;17.63;100.00;101685.94;5104074;28;20126;-69
2023/06/25 04:47:23;;;;;;;40.95;36.92;;;;;;;17.62;100.00;101681.53;5102885;28;20047;-70
2023/06/25 04:49:49;;;;;;;41.33;37.25;;;;;;;17.66;100.00;101685.91;5105300;28;20020;-70
2023/06/25 04:52:18;;;;;;;47.00;42.60;;;;;;;17.69;100.00;101691.25;5101969;28;20107;-70
2023/06/25 04:54:44;;;;;;;48.97;44.47;;;;;;;17.71;100.00;101684.06;5098018;28;20036;-70
2023/06/25 04:57:10;;;;;;;48.92;44.42;;;;;;;17.72;100.00;101688.53;5105267;28;20020;-70
2023/06/25 04:59:35;;;;;;;54.13;49.33;;;;;;;17.80;100.00;101688.44;5102695;28;20434;-70
2023/06/25 05:02:01;;;;;;;51.53;46.92;;;;;;;17.83;100.00;101683.03;5103658;28;20055;-70
2023/06/25 05:04:26;;;;;;;52.55;48.05;;;;;;;17.86;100.00;101682.13;5104015;28;20072;-69
2023/06/25 05:06:51;;;;;;;53.33;48.83;;;;;;;17.93;100.00;101681.19;5102239;28;20067;-64
2023/06/25 05:09:17;;;;;;;54.88;50.25;;;;;;;17.97;100.00;101690.94;5105333;28;20035;-69
2023/06/25 05:11:42;;;;;;;55.67;50.95;;;;;;;18.00;100.00;101680.19;5097588;28;20467;-65
2023/06/25 05:14:07;;;;;;;53.92;49.08;;;;;;;18.11;100.00;101680.94;5104646;28;20031;-68
2023/06/25 05:16:33;;;;;;;54.80;50.05;;;;;;;18.14;100.00;101684.47;5102747;28;20023;-69
2023/06/25 05:18:58;;;;;;;54.17;49.58;;;;;;;18.23;100.00;101676.28;5103180;28;20053;-64
2023/06/25 05:21:23;;;;;;;52.35;47.80;;;;;;;18.30;100.00;101680.66;5103838;28;20123;-68
2023/06/25 05:24:00;;;;;;;51.90;47.33;;;;;;;18.32;100.00;101686.88;5102004;28;20039;-69
2023/06/25 05:26:26;;;;;;;50.85;46.25;;;;;;;18.43;100.00;101676.00;5103950;28;20030;-69
2023/06/25 05:28:51;;;;;;;51.88;47.38;;;;;;;18.52;100.00;101681.19;5101812;28;20024;-68
2023/06/25 05:31:16;;;;;;;51.20;46.70;;;;;;;18.52;100.00;101678.53;5104875;28;20024;-69
2023/06/25 05:33:42;;;;;;;47.03;42.63;;;;;;;18.62;100.00;101676.59;5101727;28;20090;-68
2023/06/25 05:36:07;;;;;;;48.22;43.97;;;;;;;18.70;100.00;101679.13;5104265;28;20039;-68
2023/06/25 05:38:32;;;;;;;46.33;42.13;;;;;;;18.74;100.00;101679.09;5102553;28;20381;-66
2023/06/25 05:40:58;;;;;;;45.40;41.10;;;;;;;18.84;100.00;101679.81;5102384;28;20456;-65
2023/06/25 05:43:23;;;;;;;45.42;41.15;;;;;;;18.87;100.00;101676.22;5103782;28;20028;-69
2023/06/25 05:45:48;;;;;;;44.00;39.90;;;;;;;18.95;100.00;101672.50;5101464;28;20024;-64
2023/06/25 05:48:14;;;;;;;43.78;39.78;;;;;;;19.05;100.00;101659.84;5104556;28;20081;-68
2023/06/25 05:50:39;;;;;;;43.97;39.67;;;;;;;19.07;100.00;101666.03;5101550;28;20024;-66
2023/06/25 05:53:04;;;;;;;42.55;38.45;;;;;;;19.13;100.00;101663.28;5096663;28;20410;-69
2023/06/25 05:55:30;;;;;;;41.53;37.47;;;;;;;19.21;100.00;101657.75;5104573;28;20115;-69
2023/06/25 05:57:55;;;;;;;41.00;37.10;;;;;;;19.30;100.00;101654.03;5100781;28;20024;-69
2023/06/25 06:00:22;;;;;;;41.20;37.20;;;;;;;19.37;100.00;101663.72;5100688;28;20466;-61
2023/06/25 06:02:47;;;;;;;38.80;35.00;;;;;;;19.39;100.00;101661.00;5101976;28;20035;-67
2023/06/25 06:05:12;;;;;;;39.22;35.35;;;;;;;19.47;100.00;101659.94;5102867;28;20028;-63
2023/06/25 06:07:38;;;;;;;38.45;34.45;;;;;;;19.59;100.00;101652.56;5102007;28;20110;-63
2023/06/25 06:10:03;;;;;;;38.10;34.28;;;;;;;19.62;100.00;101656.06;5102333;28;20067;-63
2023/06/25 06:12:29;;;;;;;37.47;33.67;;;;;;;19.72;100.00;101662.13;5103430;28;20024;-63
2023/06/25 06:14:55;;;;;;;31.42;27.60;;;;;;;19.78;100.00;101659.34;5101209;28;20051;-69
2023/06/25 06:17:21;;;;;;;31.77;28.10;;;;;;;19.84;100.00;101658.31;5101274;28;20445;-68
2023/06/25 06:19:46;;;;;;;30.33;26.70;;;;;;;19.93;100.00;101659.94;5104147;28;20027;-65
2023/06/25 06:22:13;;;;;;;31.63;27.63;;;;;;;20.04;100.00;101671.31;5096514;28;20045;-68
2023/06/25 06:24:38;;;;;;;29.45;25.35;;;;;;;20.10;100.00;101671.16;5103304;28;20059;-69
2023/06/25 06:27:05;;;;;;;30.52;25.35;;;;;;;20.14;100.00;101670.19;5101822;28;20066;-70
2023/06/25 06:29:30;;;;;;;29.02;24.20;;;;;;;20.23;100.00;101665.50;5103468;28;20030;-68
2023/06/25 06:31:55;;;;;;;29.38;23.60;;;;;;;20.31;100.00;101668.91;5101583;28;20015;-69
2023/06/25 06:34:21;;;;;;;28.58;22.58;;;;;;;20.39;100.00;101666.94;5084527;28;20075;-68
2023/06/25 06:36:46;;;;;;;28.23;21.63;;;;;;;20.47;100.00;101664.94;5102763;28;20360;-66
2023/06/25 06:39:13;;;;;;;27.40;20.58;;;;;;;20.54;100.00;101663.00;5100901;28;20044;-68
2023/06/25 06:41:39;;;;;;;28.42;20.70;;;;;;;20.70;100.00;101653.66;5100957;28;20032;-66
2023/06/25 06:44:13;;;;;;;26.90;20.13;;;;;;;20.80;100.00;101659.69;5103107;28;20110;-68
2023/06/25 06:46:39;;;;;;;28.42;19.55;;;;;;;20.86;100.00;101655.97;5101625;28;20027;-65
2023/06/25 06:49:04;;;;;;;26.15;17.88;;;;;;;20.96;100.00;101651.25;5103621;28;20036;-67
2023/06/25 06:51:29;;;;;;;24.95;14.98;;;;;;;21.04;100.00;101650.13;5100564;28;20020;-66
2023/06/25 06:53:55;;;;;;;23.98;13.10;;;;;;;21.17;100.00;101656.03;5106561;28;20436;-67
2023/06/25 06:56:20;;;;;;;23.73;12.50;;;;;;;21.28;100.00;101653.06;5104349;28;20040;-67
2023/06/25 06:58:45;;;;;;;23.05;12.45;;;;;;;21.41;100.00;101654.47;5106812;28;20106;-67
2023/06/25 07:01:11;;;;;;;23.25;12.15;;;;;;;21.52;100.00;101653.31;5105167;28;20035;-66
2023/06/25 07:03:36;;;;;;;22.45;10.63;;;;;;;21.60;100.00;101651.28;5105861;28;20051;-65
2023/06/25 07:06:01;;;;;;;21.67;10.95;;;;;;;21.69;100.00;101647.44;5106088;28;20082;-64
2023/06/25 07:08:27;;;;;;;21.80;10.68;;;;;;;21.81;100.00;101648.88;5086379;28;20035;-66
2023/06/25 07:10:52;;;;;;;21.35;10.07;;;;;;;21.86;100.00;101655.91;5107341;28;20034;-67
2023/06/25 07:13:17;;;;;;;21.10;9.73;;;;;;;21.99;100.00;101650.13;5103931;28;20056;-70
2023/06/25 07:15:43;;;;;;;21.45;9.15;;;;;;;22.09;100.00;101646.22;5106968;28;20092;-69
2023/06/25 07:18:08;;;;;;;20.23;8.57;;;;;;;22.20;100.00;101653.97;5105049;28;20023;-69
2023/06/25 07:20:33;;;;;;;20.15;8.93;;;;;;;22.27;100.00;101645.66;5105511;28;20024;-69
2023/06/25 07:22:59;;;;;;;21.50;8.98;;;;;;;22.40;100.00;101651.56;5106167;28;20122;-68
2023/06/25 07:25:24;;;;;;;20.30;8.98;;;;;;;22.48;100.00;101653.13;5103864;28;20032;-69
2023/06/25 07:27:49;;;;;;;20.17;8.23;;;;;;;22.62;100.00;101648.16;5107362;28;20035;-69
2023/06/25 07:30:15;;;;;;;18.60;7.03;;;;;;;22.73;89.93;101642.38;5104108;28;20032;-69
2023/06/25 07:32:40;;;;;;;18.35;6.75;;;;;;;22.90;96.19;101644.53;5106323;28;20048;-69
2023/06/25 07:35:06;;;;;;;18.95;6.85;;;;;;;23.02;87.29;101643.22;5104886;28;20039;-68
2023/06/25 07:37:32;;;;;;;19.02;6.57;;;;;;;23.09;83.35;101636.66;5105007;28;20474;-69
2023/06/25 07:39:57;;;;;;;18.02;6.20;;;;;;;23.20;84.59;101642.59;5105997;28;20034;-69
2023/06/25 07:42:22;;;;;;;18.83;6.50;;;;;;;23.26;83.93;101642.38;5103653;28;20028;-70
2023/06/25 07:44:48;;;;;;;17.58;6.20;;;;;;;23.39;81.79;101639.22;5107123;28;20031;-69
2023/06/25 07:47:13;;;;;;;19.15;6.45;;;;;;;23.47;78.75;101640.72;5103663;28;20035;-69
2023/06/25 07:49:38;;;;;;;20.42;6.93;;;;;;;23.55;81.63;101643.09;5105558;28;20028;-69
2023/06/25 07:52:04;;;;;;;18.73;6.50;;;;;;;23.62;75.61;101633.84;5105284;28;20114;-68
2023/06/25 07:54:30;;;;;;;18.92;6.80;;;;;;;23.74;75.02;101637.03;5104195;28;20040;-69
2023/06/25 07:56:55;;;;;;;18.38;6.90;;;;;;;23.85;75.42;101630.25;5106169;28;20493;-61
2023/06/25 07:59:20;;;;;;;17.92;7.03;;;;;;;23.92;71.81;101630.06;5103290;28;20471;-65
2023/06/25 08:01:46;;;;;;;19.75;7.60;;;;;;;24.04;70.59;101634.06;5106545;28;20120;-66
2023/06/25 08:04:11;;;;;;;18.05;6.40;;;;;;;24.18;72.46;101629.88;5103736;28;20455;-64
2023/06/25 08:06:36;;;;;;;19.25;6.97;;;;;;;24.41;74.45;101627.19;5104930;28;20100;-67
2023/06/25 08:09:03;;;;;;;19.73;6.80;;;;;;;24.51;73.21;101624.03;5104737;28;20030;-67
2023/06/25 08:11:28;;;;;;;17.58;6.82;;;;;;;24.58;71.16;101627.38;5103759;28;20111;-62
2023/06/25 08:13:53;;;;;;;18.95;7.10;;;;;;;24.66;73.47;101621.66;5105697;28;20115;-63
2023/06/25 08:16:19;;;;;;;19.30;7.43;;;;;;;24.72;68.66;101629.50;5102689;28;20494;-65
2023/06/25 08:18:44;;;;;;;18.95;7.05;;;;;;;24.83;68.55;101624.53;5105936;28;20088;-63
2023/06/25 08:21:10;;;;;;;19.35;7.07;;;;;;;24.94;69.02;101629.44;5103356;28;20313;-61
2023/06/25 08:23:35;;;;;;;19.27;7.20;;;;;;;24.98;69.38;101622.97;5104215;28;20126;-65
2023/06/25 08:26:00;;;;;;;18.63;7.05;;;;;;;25.10;69.36;101626.09;5104924;28;20092;-68
2023/06/25 08:28:26;;;;;;;18.80;6.53;;;;;;;25.27;67.74;101623.50;5103002;28;20051;-65
2023/06/25 08:30:51;;;;;;;18.83;6.88;;;;;;;25.49;71.33;101622.56;5105786;28;20031;-66
2023/06/25 08:33:16;;;;;;;18.10;6.75;;;;;;;25.59;69.89;101623.88;5102402;28;20036;-67
2023/06/25 08:35:42;;;;;;;18.15;6.60;;;;;;;25.58;67.19;101622.13;5105317;28;20035;-66
2023/06/25 08:38:08;;;;;;;18.50;6.75;;;;;;;25.65;67.25;101623.59;5103683;28;20081;-67
2023/06/25 08:40:40;;;;;;;18.50;6.82;;;;;;;25.78;65.69;101614.91;5103664;28;20489;-65
2023/06/25 08:43:06;;;;;;;16.58;5.90;;;;;;;25.95;65.66;101609.56;5101389;28;20110;-66
2023/06/25 08:45:31;;;;;;;18.60;6.60;;;;;;;26.07;64.98;101608.09;5103548;28;20423;-68
2023/06/25 08:48:02;;;;;;;17.02;6.20;;;;;;;26.20;64.72;101614.69;5104321;28;20028;-69
2023/06/25 08:50:29;;;;;;;17.48;5.90;;;;;;;26.32;63.22;101607.75;5102826;28;20059;-68
2023/06/25 08:52:55;;;;;;;18.02;6.35;;;;;;;26.25;61.96;101606.31;5104412;28;20379;-66
2023/06/25 08:55:22;;;;;;;16.83;6.13;;;;;;;26.30;62.90;101604.25;5102166;28;20040;-68
2023/06/25 08:57:49;;;;;;;15.95;5.88;;;;;;;26.62;64.19;101601.75;5105307;28;20028;-70
2023/06/25 09:00:16;;;;;;;17.92;6.28;;;;;;;26.79;60.18;101607.22;5101896;28;20043;-69
2023/06/25 09:02:42;;;;;;;17.38;6.03;;;;;;;26.70;58.26;101601.38;5104945;28;20505;-69
2023/06/25 09:05:13;;;;;;;15.45;5.63;;;;;;;26.68;59.29;101593.34;5102665;28;20031;-69
2023/06/25 09:07:46;;;;;;;16.53;5.80;;;;;;;26.89;60.83;101598.59;5104522;28;20383;-69
2023/06/25 09:10:11;;;;;;;18.25;6.07;;;;;;;27.02;57.54;101599.69;5102332;28;20032;-69
2023/06/25 09:12:37;;;;;;;16.33;5.75;;;;;;;27.08;56.64;101601.19;5103853;28;20039;-69
2023/06/25 09:15:03;;;;;;;16.65;6.00;;;;;;;27.08;55.80;101591.22;5103188;28;20478;-67
2023/06/25 09:17:29;;;;;;;15.73;5.93;;;;;;;27.23;56.43;101592.25;5102457;28;20510;-69
2023/06/25 09:19:54;;;;;;;18.30;5.82;;;;;;;27.21;57.66;101591.44;5104343;28;20055;-69
2023/06/25 09:22:19;;;;;;;16.33;5.65;;;;;;;27.36;53.99;101594.31;5101346;28;20072;-69
2023/06/25 09:24:49;;;;;;;17.63;5.90;;;;;;;27.53;57.42;101585.25;5105027;28;20035;-66
2023/06/25 09:27:14;;;;;;;17.60;5.95;;;;;;;27.78;56.11;101587.44;5101784;28;20024;-69
2023/06/25 09:29:40;;;;;;;15.90;5.95;;;;;;;27.90;53.67;101585.88;5104068;28;20108;-69
2023/06/25 09:32:17;;;;;;;16.65;6.05;;;;;;;27.96;53.90;101577.38;5102758;28;20076;-66
2023/06/25 09:34:45;;;;;;;16.70;5.63;;;;;;;28.08;55.66;101590.28;5104454;28;20098;-68
2023/06/25 09:37:11;;;;;;;17.08;5.85;;;;;;;28.28;54.26;101588.22;5101827;28;20040;-64
2023/06/25 09:39:36;;;;;;;17.48;5.80;;;;;;;28.31;52.55;101580.78;5103451;28;20107;-62
2023/06/25 09:42:03;;;;;;;16.45;6.05;;;;;;;28.44;51.76;101585.50;5103225;28;20020;-68
2023/06/25 09:44:30;;;;;;;15.85;5.57;;;;;;;28.48;49.05;101581.63;5102298;28;20024;-64
2023/06/25 09:47:03;;;;;;;15.60;5.35;;;;;;;28.37;48.34;101581.38;5103915;28;20051;-61
2023/06/25 09:49:31;;;;;;;16.80;5.97;;;;;;;28.42;51.17;101576.56;5102304;28;20544;-61
2023/06/25 09:52:07;;;;;;;16.50;5.80;;;;;;;28.46;52.12;101570.84;5103737;28;20024;-62
2023/06/25 09:54:34;;;;;;;15.82;5.63;;;;;;;28.56;48.00;101567.56;5102738;28;20115;-61
2023/06/25 09:57:03;;;;;;;16.60;5.72;;;;;;;28.82;50.92;101566.91;5103212;28;20028;-61
2023/06/25 09:59:29;;;;;;;15.00;5.45;;;;;;;29.26;49.33;101570.56;5102376;28;20120;-65
2023/06/25 10:01:54;;;;;;;15.70;5.55;;;;;;;29.42;46.74;101575.91;5103946;28;20957;-65
2023/06/25 10:04:21;;;;;;;16.90;5.63;;;;;;;29.36;47.29;101579.03;5101144;28;20039;-62
2023/06/25 10:06:47;;;;;;;16.10;5.50;;;;;;;29.49;45.60;101563.66;5097200;28;20028;-63
2023/06/25 10:09:13;;;;;;;14.82;5.47;;;;;;;30.35;48.54;101559.81;5103957;28;20378;-66
2023/06/25 10:11:52;;;;;;;16.58;5.80;;;;;;;31.50;42.71;101568.22;5102069;28;20028;-67
2023/06/25 10:14:18;;;;;;;15.13;5.35;;;;;;;33.12;40.68;101564.19;5097224;28;20024;-63
2023/06/25 10:16:52;;;;;;;16.63;5.50;;;;;;;34.77;35.81;101563.31;5104015;28;20063;-62
2023/06/25 10:19:27;;;;;;;16.73;5.70;;;;;;;34.08;36.50;101562.75;5096812;28;20082;-65
2023/06/25 10:22:10;;;;;;;16.65;5.63;;;;;;;33.74;35.60;101567.41;5097460;28;20051;-61
2023/06/25 10:24:40;;;;;;;16.00;5.30;;;;;;;34.05;35.89;101555.63;5102135;28;20038;-65
2023/06/25 10:27:07;;;;;;;14.18;5.20;;;;;;;34.67;33.02;101547.63;5103056;28;20486;-66
2023/06/25 10:29:40;;;;;;;14.63;5.40;;;;;;;34.66;33.00;101556.91;5106051;28;20035;-66
2023/06/25 10:32:05;;;;;;;13.15;5.10;;;;;;;34.86;32.79;101541.47;5106686;28;20032;-61
2023/06/25 10:34:36;;;;;;;15.55;5.18;;;;;;;35.03;32.81;101542.69;5106909;28;20080;-64
2023/06/25 10:37:07;;;;;;;15.00;5.30;;;;;;;35.72;31.80;101545.69;5106281;28;20039;-63
2023/06/25 10:39:40;;;;;;;14.00;4.90;;;;;;;36.92;30.41;101552.88;5106466;28;20027;-62
2023/06/25 10:42:06;;;;;;;15.75;5.50;;;;;;;36.72;29.12;101541.84;5106648;28;20367;-62
2023/06/25 10:44:31;;;;;;;15.95;5.10;;;;;;;36.77;30.07;101539.56;5106532;28;20398;-66
2023/06/25 10:47:09;;;;;;;15.40;5.43;;;;;;;36.12;30.61;101533.78;5105259;28;20030;-61
2023/06/25 10:49:35;;;;;;;15.32;5.30;;;;;;;36.04;29.35;101536.38;5106069;28;20047;-68
2023/06/25 10:52:03;;;;;;;15.45;5.10;;;;;;;37.07;28.71;101537.56;5105611;28;20035;-65
2023/06/25 10:54:30;;;;;;;15.25;5.10;;;;;;;36.54;28.79;101527.09;5106998;28;20118;-62
2023/06/25 10:57:15;;;;;;;13.93;5.18;;;;;;;37.24;28.00;101535.03;5086548;28;20946;-64
2023/06/25 10:59:44;;;;;;;13.45;5.00;;;;;;;37.01;28.71;101534.56;5105322;28;20024;-67
2023/06/25 11:02:27;;;;;;;12.85;4.90;;;;;;;36.78;31.34;101524.75;5106482;28;20032;-67
2023/06/25 11:04:56;;;;;;;14.23;5.13;;;;;;;36.74;31.05;101528.81;5101008;28;20038;-65